East Grand Forks, Minnesota
Current Conditions -  °F | °C
As of 11:53 AM on Thursday 18 Dec 2014 (Local Time) from KGFK Reporting Station
Overcast Overcast  
Wind Chill:   Ceiling: 6500
Heat Index: 17°   Visibility: 9mi
Dew Point: 13°   Wind: 9mph
Humidity: 84%   Direction: 160°SSE
Pressure: 30.23"   Gusts: NA
Location:  47.93°N, 97.02°W
Report Text: KGFK 181753Z 16008KT 9SM BKN065 OVC170 M08/M11 A3023 RMK AO2 SLP257 T10831106 11083 21161 58003
Loading
Personal Weather Stations






























Interactive Weather Map New forecast layout! Learn more

10-Day Weather Forecast

Advertisements
Track Severe Weather on mobile